createdAt,value
2023-10-04T00:01:39.059Z,1.13
2023-10-04T00:04:44.856Z,1.27
2023-10-04T00:07:49.316Z,1.00
2023-10-04T00:10:53.190Z,1.00
2023-10-04T00:13:56.507Z,1.10
2023-10-04T00:17:00.981Z,0.87
2023-10-04T00:20:08.896Z,0.93
2023-10-04T00:23:12.043Z,1.00
2023-10-04T00:26:15.954Z,1.00
2023-10-04T00:29:19.496Z,1.20
2023-10-04T00:32:22.366Z,1.00
2023-10-04T00:35:26.626Z,0.95
2023-10-04T00:38:30.011Z,0.90
2023-10-04T00:41:35.145Z,1.08
2023-10-04T00:44:38.236Z,1.00
2023-10-04T00:47:42.833Z,1.20
2023-10-04T00:50:45.901Z,1.10
2023-10-04T00:53:48.514Z,1.10
2023-10-04T00:56:52.817Z,1.15
2023-10-04T00:59:55.412Z,1.38
2023-10-04T01:02:58.370Z,1.08
2023-10-04T01:06:02.420Z,0.83
2023-10-04T01:09:07.424Z,1.10
2023-10-04T01:12:11.541Z,1.05
2023-10-04T01:15:31.561Z,1.00
2023-10-04T01:18:35.304Z,1.00
2023-10-04T01:21:37.877Z,1.10
2023-10-04T01:24:42.960Z,0.80
2023-10-04T01:27:45.518Z,0.97
2023-10-04T01:30:50.054Z,1.08
2023-10-04T01:33:53.322Z,0.90
2023-10-04T01:36:55.998Z,0.88
2023-10-04T01:40:01.452Z,0.75
2023-10-04T01:43:16.122Z,0.93
2023-10-04T01:46:19.286Z,1.05
2023-10-04T01:49:21.854Z,0.80
2023-10-04T01:52:24.702Z,1.00
2023-10-04T01:55:28.598Z,0.73
2023-10-04T01:58:31.131Z,0.73
2023-10-04T02:01:33.690Z,1.10
2023-10-04T02:04:37.580Z,0.80
2023-10-04T02:07:40.758Z,0.80
2023-10-04T02:10:45.984Z,0.90
2023-10-04T02:13:48.989Z,0.87
2023-10-04T02:16:53.338Z,0.80
2023-10-04T02:19:55.993Z,0.70
2023-10-04T02:22:58.742Z,0.80
2023-10-04T02:26:04.571Z,1.00
2023-10-04T02:29:10.499Z,0.87
2023-10-04T02:32:14.658Z,0.90
2023-10-04T02:35:23.243Z,0.87
2023-10-04T02:38:28.110Z,0.63
2023-10-04T02:41:32.866Z,0.93
2023-10-04T02:44:35.518Z,0.97
2023-10-04T02:47:39.423Z,1.00
2023-10-04T02:50:42.449Z,0.87
2023-10-04T02:56:51.924Z,0.80
2023-10-04T02:59:56.098Z,0.90
2023-10-04T03:02:58.770Z,0.90
2023-10-04T03:06:02.333Z,0.75
2023-10-04T03:09:07.151Z,0.90
2023-10-04T03:12:11.943Z,0.73
2023-10-04T03:15:14.687Z,0.85
2023-10-04T03:18:20.010Z,0.60
2023-10-04T03:21:22.779Z,0.87
2023-10-04T03:24:26.369Z,0.90
2023-10-04T03:27:30.541Z,1.00
2023-10-04T03:30:33.381Z,1.10
2023-10-04T03:36:40.658Z,0.90
2023-10-04T03:39:46.939Z,1.10
2023-10-04T03:42:51.033Z,1.00
2023-10-04T03:45:53.613Z,1.00
2023-10-04T03:48:57.235Z,1.40
2023-10-04T03:51:59.847Z,1.90
2023-10-04T03:55:03.519Z,1.63
2023-10-04T03:58:08.555Z,1.30
2023-10-04T04:01:11.547Z,1.60
2023-10-04T04:07:21.553Z,1.40
2023-10-04T04:10:25.598Z,1.55
2023-10-04T04:13:29.456Z,1.73
2023-10-04T04:16:32.030Z,1.33
2023-10-04T04:19:34.909Z,1.15
2023-10-04T04:22:37.507Z,1.30
2023-10-04T04:25:41.653Z,1.13
2023-10-04T04:28:45.775Z,1.20
2023-10-04T04:31:50.360Z,1.73
2023-10-04T04:34:52.939Z,1.50
2023-10-04T04:37:56.027Z,1.20
2023-10-04T04:41:01.670Z,1.93
2023-10-04T04:44:08.900Z,2.43
2023-10-04T04:47:12.025Z,3.90
2023-10-04T04:53:20.005Z,3.00
2023-10-04T04:56:25.082Z,2.17
2023-10-04T04:59:30.017Z,2.50
2023-10-04T05:02:33.500Z,2.40
2023-10-04T05:05:36.200Z,1.70
2023-10-04T05:08:39.013Z,1.65
2023-10-04T05:11:41.591Z,2.05
2023-10-04T05:14:45.552Z,1.50
2023-10-04T05:17:51.330Z,1.50
2023-10-04T05:20:54.882Z,1.70
2023-10-04T05:23:57.813Z,1.73
2023-10-04T05:30:04.779Z,1.80
2023-10-04T05:33:08.660Z,1.97
2023-10-04T05:36:11.349Z,1.97
2023-10-04T05:39:15.903Z,1.73
2023-10-04T05:42:18.758Z,1.40
2023-10-04T05:45:22.985Z,1.63
2023-10-04T05:48:27.563Z,2.10
2023-10-04T05:51:31.097Z,1.53
2023-10-04T05:54:33.792Z,1.90
2023-10-04T05:57:36.783Z,1.20
2023-10-04T06:03:45.797Z,1.40
2023-10-04T06:06:49.348Z,1.27
2023-10-04T06:09:51.941Z,1.30
2023-10-04T06:12:55.365Z,1.30
2023-10-04T06:16:00.331Z,1.40
2023-10-04T06:19:12.906Z,1.80
2023-10-04T06:22:22.420Z,1.20
2023-10-04T06:25:25.758Z,1.20
2023-10-04T06:28:28.294Z,1.40
2023-10-04T06:31:32.592Z,1.10
2023-10-04T06:34:35.286Z,1.80
2023-10-04T06:37:37.883Z,1.45
2023-10-04T06:40:40.859Z,1.35
2023-10-04T06:46:47.224Z,1.30
2023-10-04T06:49:50.353Z,1.50
2023-10-04T06:52:53.921Z,1.20
2023-10-04T06:55:57.477Z,1.33
2023-10-04T06:59:00.051Z,1.53
2023-10-04T07:02:04.098Z,1.45
2023-10-04T07:05:07.073Z,1.33
2023-10-04T07:14:15.584Z,1.40
2023-10-04T07:17:20.519Z,1.45
2023-10-04T07:20:25.515Z,1.40
2023-10-04T07:23:40.602Z,1.70
2023-10-04T07:26:46.631Z,1.40
2023-10-04T07:29:49.482Z,1.20
2023-10-04T07:32:54.088Z,1.10
2023-10-04T07:35:56.739Z,1.33
2023-10-04T07:38:59.521Z,1.38
2023-10-04T07:42:03.449Z,1.65
2023-10-04T07:45:06.706Z,1.27
2023-10-04T07:48:13.832Z,1.30
2023-10-04T07:51:16.927Z,1.40
2023-10-04T07:57:23.514Z,1.30
2023-10-04T08:00:26.448Z,1.20
2023-10-04T08:06:33.544Z,1.10
2023-10-04T08:09:36.161Z,1.05
2023-10-04T08:12:38.798Z,1.17
2023-10-04T08:15:41.487Z,1.17
2023-10-04T08:18:45.528Z,1.15
2023-10-04T08:21:48.303Z,1.30
2023-10-04T08:24:50.943Z,0.90
2023-10-04T08:27:53.889Z,1.50
2023-10-04T08:30:56.994Z,1.25
2023-10-04T08:34:01.030Z,1.00
2023-10-04T08:37:04.118Z,1.00
2023-10-04T08:40:11.206Z,1.07
2023-10-04T08:43:13.795Z,1.10
2023-10-04T08:46:18.602Z,1.10
2023-10-04T08:49:24.404Z,1.20
2023-10-04T08:52:36.289Z,1.40
2023-10-04T08:55:42.307Z,1.53
2023-10-04T08:58:45.419Z,1.10
2023-10-04T09:01:48.916Z,1.50
2023-10-04T09:04:53.592Z,1.10
2023-10-04T09:07:57.146Z,0.90
2023-10-04T09:11:00.241Z,1.20
2023-10-04T09:20:16.316Z,1.17
2023-10-04T09:23:21.336Z,1.20
2023-10-04T09:26:23.941Z,1.23
2023-10-04T09:29:33.936Z,1.30
2023-10-04T09:32:39.381Z,1.13
2023-10-04T09:35:44.581Z,1.43
2023-10-04T09:38:50.254Z,1.23
2023-10-04T09:41:55.919Z,1.00
2023-10-04T09:45:08.667Z,1.00
2023-10-04T09:48:15.227Z,0.85
2023-10-04T09:51:19.377Z,1.10
2023-10-04T09:54:22.155Z,0.88
2023-10-04T09:57:24.913Z,1.10
2023-10-04T10:00:30.376Z,0.98
2023-10-04T10:03:38.522Z,1.20
2023-10-04T10:06:48.515Z,0.80
2023-10-04T10:10:02.196Z,1.07
2023-10-04T10:13:07.480Z,0.90
2023-10-04T10:16:12.194Z,1.25
2023-10-04T10:19:14.838Z,1.03
2023-10-04T10:22:20.147Z,0.73
2023-10-04T10:25:23.499Z,0.80
2023-10-04T10:28:26.327Z,1.08
2023-10-04T10:34:31.760Z,0.90
2023-10-04T10:40:42.968Z,0.80
2023-10-04T10:44:18.783Z,0.82
2023-10-04T10:47:24.254Z,1.03
2023-10-04T10:50:34.111Z,1.00
2023-10-04T10:53:38.216Z,1.00
2023-10-04T10:56:41.120Z,0.90
2023-10-04T11:02:46.398Z,0.90
2023-10-04T11:05:49.094Z,0.70
2023-10-04T11:08:54.261Z,0.70
2023-10-04T11:11:57.887Z,1.10
2023-10-04T11:15:01.524Z,0.80
2023-10-04T11:18:07.142Z,0.80
2023-10-04T11:21:09.840Z,0.70
2023-10-04T11:24:15.483Z,0.80
2023-10-04T11:27:23.993Z,0.98
2023-10-04T11:30:28.646Z,0.80
2023-10-04T11:33:33.922Z,0.82
2023-10-04T11:36:38.140Z,0.80
2023-10-04T11:39:44.097Z,0.90
2023-10-04T11:42:49.813Z,0.90
2023-10-04T11:46:01.129Z,0.60
2023-10-04T11:49:13.548Z,0.90
2023-10-04T11:52:19.344Z,0.70
2023-10-04T11:55:37.234Z,0.77
2023-10-04T11:58:47.250Z,0.98
2023-10-04T12:01:50.544Z,1.25
2023-10-04T12:04:53.336Z,0.75
2023-10-04T12:07:59.411Z,0.68
2023-10-04T12:11:14.373Z,1.00
2023-10-04T12:14:17.356Z,0.80
2023-10-04T12:23:28.147Z,0.70
2023-10-04T12:26:32.521Z,1.17
2023-10-04T12:29:35.084Z,0.80
2023-10-04T12:32:37.692Z,0.90
2023-10-04T12:35:40.285Z,0.85
2023-10-04T12:38:43.135Z,1.00
2023-10-04T12:41:47.130Z,1.17
2023-10-04T12:44:49.967Z,0.90
2023-10-04T12:47:53.743Z,0.83
2023-10-04T12:50:56.751Z,0.80
2023-10-04T12:57:03.483Z,0.73
2023-10-04T13:00:14.972Z,0.60
2023-10-04T13:03:18.295Z,0.70
2023-10-04T13:06:21.023Z,0.70
2023-10-04T13:09:27.649Z,0.80
2023-10-04T13:12:31.625Z,0.67
2023-10-04T13:15:35.733Z,0.70
2023-10-04T13:18:38.680Z,0.60
2023-10-04T13:24:44.212Z,0.82
2023-10-04T13:27:48.196Z,0.63
2023-10-04T13:30:52.063Z,0.70
2023-10-04T13:33:56.024Z,0.73
2023-10-04T13:36:58.795Z,0.88
2023-10-04T13:43:14.053Z,0.88
2023-10-04T13:46:16.784Z,0.90
2023-10-04T13:49:19.731Z,0.70
2023-10-04T13:52:23.171Z,0.73
2023-10-04T13:55:27.293Z,0.70
2023-10-04T13:58:31.370Z,0.80
2023-10-04T14:01:34.961Z,0.60
2023-10-04T14:04:37.668Z,0.57
2023-10-04T14:07:40.385Z,0.70
2023-10-04T14:10:42.985Z,0.70
2023-10-04T14:13:47.151Z,0.50
2023-10-04T14:16:50.278Z,0.50
2023-10-04T14:19:52.853Z,0.65
2023-10-04T14:22:57.897Z,0.82
2023-10-04T14:26:00.584Z,0.60
2023-10-04T14:29:06.113Z,0.70
2023-10-04T14:32:08.816Z,0.63
2023-10-04T14:35:13.088Z,0.60
2023-10-04T14:38:16.705Z,0.80
2023-10-04T14:41:19.300Z,0.57
2023-10-04T14:44:23.192Z,0.70
2023-10-04T14:47:25.808Z,0.70
2023-10-04T14:50:28.652Z,0.50
2023-10-04T14:53:31.286Z,0.45
2023-10-04T14:56:33.974Z,0.82
2023-10-04T14:59:37.863Z,0.80
2023-10-04T15:02:40.710Z,0.82
2023-10-04T15:08:46.904Z,0.60
2023-10-04T15:11:49.499Z,0.30
2023-10-04T15:14:53.365Z,0.60
2023-10-04T15:17:56.090Z,0.60
2023-10-04T15:20:58.937Z,0.55
2023-10-04T15:24:04.629Z,0.45
2023-10-04T15:27:07.639Z,0.70
2023-10-04T15:30:18.750Z,0.43
2023-10-04T15:33:21.337Z,0.50
2023-10-04T15:36:24.091Z,0.50
2023-10-04T15:39:32.177Z,0.50
2023-10-04T15:42:34.938Z,0.60
2023-10-04T15:48:42.459Z,0.93
2023-10-04T15:51:45.628Z,0.50
2023-10-04T15:54:48.276Z,0.40
2023-10-04T15:57:51.256Z,0.63
2023-10-04T16:00:57.561Z,0.68
2023-10-04T16:04:00.341Z,0.70
2023-10-04T16:07:03.198Z,0.70
2023-10-04T16:10:07.331Z,0.60
2023-10-04T16:13:10.031Z,1.20
2023-10-04T16:16:14.153Z,0.70
2023-10-04T16:19:16.908Z,0.50
2023-10-04T16:22:19.469Z,0.32
2023-10-04T16:25:22.612Z,0.55
2023-10-04T16:28:25.187Z,0.70
2023-10-04T16:31:29.109Z,0.80
2023-10-04T16:34:32.127Z,0.60
2023-10-04T16:37:34.693Z,0.57
2023-10-04T16:40:37.223Z,0.70
2023-10-04T16:43:39.822Z,0.60
2023-10-04T16:46:43.956Z,0.82
2023-10-04T16:49:46.623Z,1.02
2023-10-04T16:52:51.066Z,0.63
2023-10-04T16:55:53.664Z,0.88
2023-10-04T16:58:57.584Z,0.60
2023-10-04T17:02:02.240Z,0.70
2023-10-04T17:05:05.731Z,0.70
2023-10-04T17:08:08.695Z,0.40
2023-10-04T17:14:14.300Z,0.52
2023-10-04T17:17:18.371Z,0.52
2023-10-04T17:20:21.088Z,1.10
2023-10-04T17:23:23.719Z,1.23
2023-10-04T17:26:27.360Z,1.50
2023-10-04T17:29:29.978Z,1.70
2023-10-04T17:32:34.227Z,1.52
2023-10-04T17:35:37.112Z,1.50
2023-10-04T17:38:39.668Z,1.95
2023-10-04T17:41:42.548Z,1.60
2023-10-04T17:44:45.155Z,1.88
2023-10-04T17:47:50.198Z,1.90
2023-10-04T17:50:52.931Z,1.70
2023-10-04T17:53:55.636Z,2.10
2023-10-04T17:56:58.231Z,1.90
2023-10-04T18:00:01.801Z,1.77
2023-10-04T18:03:06.596Z,2.60
2023-10-04T18:06:09.677Z,2.00
2023-10-04T18:12:18.559Z,1.70
2023-10-04T18:15:22.728Z,1.65
2023-10-04T18:18:26.806Z,1.73
2023-10-04T18:21:29.807Z,2.07
2023-10-04T18:24:32.640Z,1.65
2023-10-04T18:27:35.680Z,1.55
2023-10-04T18:30:38.425Z,2.10
2023-10-04T18:33:42.607Z,2.13
2023-10-04T18:36:45.782Z,1.53
2023-10-04T18:42:50.955Z,1.60
2023-10-04T18:45:55.266Z,1.90
2023-10-04T18:49:00.075Z,1.43
2023-10-04T18:52:02.903Z,1.40
2023-10-04T18:55:10.192Z,1.73
2023-10-04T18:58:15.137Z,1.57
2023-10-04T19:01:19.017Z,1.80
2023-10-04T19:04:23.343Z,1.30
2023-10-04T19:07:27.470Z,2.07
2023-10-04T19:10:30.888Z,1.30
2023-10-04T19:13:35.251Z,1.67
2023-10-04T19:16:38.673Z,1.60
2023-10-04T19:19:42.956Z,1.27
2023-10-04T19:22:45.508Z,1.57
2023-10-04T19:25:50.432Z,1.58
2023-10-04T19:28:53.022Z,1.33
2023-10-04T19:31:56.472Z,1.60
2023-10-04T19:35:00.430Z,1.60
2023-10-04T19:38:05.830Z,1.83
2023-10-04T19:41:08.703Z,1.50
2023-10-04T19:44:11.259Z,1.67
2023-10-04T19:47:19.183Z,1.30
2023-10-04T19:50:25.241Z,1.37
2023-10-04T19:53:27.791Z,1.80
2023-10-04T19:56:30.666Z,1.50
2023-10-04T19:59:33.590Z,1.20
2023-10-04T20:02:36.237Z,1.40
2023-10-04T20:05:40.745Z,1.23
2023-10-04T20:08:43.379Z,1.87
2023-10-04T20:11:45.910Z,1.70
2023-10-04T20:14:48.493Z,1.58
2023-10-04T20:17:51.445Z,1.23
2023-10-04T20:24:00.511Z,1.30
2023-10-04T20:27:03.062Z,1.52
2023-10-04T20:30:07.598Z,1.17
2023-10-04T20:33:10.164Z,1.20
2023-10-04T20:36:16.260Z,1.00
2023-10-04T20:39:20.031Z,1.50
2023-10-04T20:42:23.987Z,1.13
2023-10-04T20:45:26.618Z,1.20
2023-10-04T20:48:29.247Z,0.98
2023-10-04T20:51:33.990Z,1.10
2023-10-04T20:54:36.602Z,1.23
2023-10-04T20:57:39.707Z,1.50
2023-10-04T21:00:42.313Z,1.40
2023-10-04T21:03:45.111Z,1.23
2023-10-04T21:06:50.292Z,1.17
2023-10-04T21:09:53.371Z,1.10
2023-10-04T21:15:58.744Z,1.60
2023-10-04T21:19:01.366Z,1.20
2023-10-04T21:22:05.485Z,1.35
2023-10-04T21:25:09.747Z,1.10
2023-10-04T21:28:12.467Z,1.50
2023-10-04T21:31:15.933Z,1.38
2023-10-04T21:34:20.246Z,1.17
2023-10-04T21:37:28.924Z,1.53
2023-10-04T21:40:31.735Z,1.10
2023-10-04T21:43:35.725Z,1.27
2023-10-04T21:46:39.810Z,1.43
2023-10-04T21:49:44.151Z,1.27
2023-10-04T21:52:48.077Z,1.10
2023-10-04T21:55:52.378Z,1.10
2023-10-04T21:58:54.933Z,1.10
2023-10-04T22:01:57.615Z,1.20
2023-10-04T22:05:01.241Z,1.08
2023-10-04T22:08:09.653Z,0.80
2023-10-04T22:11:13.098Z,1.27
2023-10-04T22:14:16.385Z,1.23
2023-10-04T22:17:19.504Z,1.27
2023-10-04T22:20:24.344Z,1.10
2023-10-04T22:23:29.713Z,1.07
2023-10-04T22:26:32.383Z,1.30
2023-10-04T22:32:42.707Z,1.30
2023-10-04T22:35:46.613Z,1.33
2023-10-04T22:38:51.580Z,1.40
2023-10-04T22:41:54.189Z,0.87
2023-10-04T22:44:57.451Z,0.90
2023-10-04T22:48:00.343Z,1.20
2023-10-04T22:51:02.960Z,1.27
2023-10-04T22:54:07.848Z,1.17
2023-10-04T22:57:11.995Z,1.13
2023-10-04T23:00:18.118Z,1.20
2023-10-04T23:03:24.479Z,1.17
2023-10-04T23:06:33.679Z,1.27
2023-10-04T23:09:37.553Z,1.40
2023-10-04T23:12:40.747Z,1.00
2023-10-04T23:18:50.635Z,1.20
2023-10-04T23:21:54.950Z,0.80
2023-10-04T23:24:59.003Z,1.13
2023-10-04T23:28:02.580Z,1.00
2023-10-04T23:31:08.549Z,1.03
2023-10-04T23:34:11.355Z,1.17
2023-10-04T23:37:15.054Z,1.13
2023-10-04T23:40:25.080Z,0.80
2023-10-04T23:43:27.722Z,0.83
2023-10-04T23:46:31.995Z,1.48
2023-10-04T23:49:39.495Z,0.90
2023-10-04T23:52:42.121Z,0.90
2023-10-04T23:55:47.980Z,1.35
2023-10-04T23:58:53.912Z,1.03
